sensor_id;sensor_type;location;lat;lon;timestamp;temperature;humidity
35240;DHT22;21376;50.954;4.716;2023-02-03T00:00:46;10.00;99.90
35240;DHT22;21376;50.954;4.716;2023-02-03T00:03:21;10.00;99.90
35240;DHT22;21376;50.954;4.716;2023-02-03T00:06:05;9.90;99.90
35240;DHT22;21376;50.954;4.716;2023-02-03T00:08:34;9.90;99.90
35240;DHT22;21376;50.954;4.716;2023-02-03T00:11:04;9.80;99.90
35240;DHT22;21376;50.954;4.716;2023-02-03T00:13:34;9.80;99.90
35240;DHT22;21376;50.954;4.716;2023-02-03T00:16:04;9.80;99.90
35240;DHT22;21376;50.954;4.716;2023-02-03T00:18:33;9.90;99.90
35240;DHT22;21376;50.954;4.716;2023-02-03T00:21:01;9.90;99.90
35240;DHT22;21376;50.954;4.716;2023-02-03T00:23:30;9.90;99.90
35240;DHT22;21376;50.954;4.716;2023-02-03T00:26:17;9.90;99.90
35240;DHT22;21376;50.954;4.716;2023-02-03T00:28:52;9.90;99.90
35240;DHT22;21376;50.954;4.716;2023-02-03T00:31:42;10.00;99.90
35240;DHT22;21376;50.954;4.716;2023-02-03T00:34:07;9.80;99.90
35240;DHT22;21376;50.954;4.716;2023-02-03T00:36:37;9.90;99.90
35240;DHT22;21376;50.954;4.716;2023-02-03T00:39:06;9.80;99.90
35240;DHT22;21376;50.954;4.716;2023-02-03T00:46:26;9.80;99.90
35240;DHT22;21376;50.954;4.716;2023-02-03T00:48:52;9.80;99.90
35240;DHT22;21376;50.954;4.716;2023-02-03T00:51:24;10.00;99.90
35240;DHT22;21376;50.954;4.716;2023-02-03T00:53:53;9.80;99.90
35240;DHT22;21376;50.954;4.716;2023-02-03T00:56:22;9.80;99.90
35240;DHT22;21376;50.954;4.716;2023-02-03T00:59:11;9.80;99.90
35240;DHT22;21376;50.954;4.716;2023-02-03T01:01:59;10.00;99.90
35240;DHT22;21376;50.954;4.716;2023-02-03T01:04:43;10.00;99.90
35240;DHT22;21376;50.954;4.716;2023-02-03T01:10:13;9.90;99.90
35240;DHT22;21376;50.954;4.716;2023-02-03T01:12:44;9.90;99.90
35240;DHT22;21376;50.954;4.716;2023-02-03T01:15:16;10.00;99.90
35240;DHT22;21376;50.954;4.716;2023-02-03T01:17:45;10.00;99.90
35240;DHT22;21376;50.954;4.716;2023-02-03T01:20:13;10.00;99.90
35240;DHT22;21376;50.954;4.716;2023-02-03T01:22:44;10.00;99.90
35240;DHT22;21376;50.954;4.716;2023-02-03T01:25:13;10.00;99.90
35240;DHT22;21376;50.954;4.716;2023-02-03T01:27:39;10.10;99.90
35240;DHT22;21376;50.954;4.716;2023-02-03T01:30:08;10.00;99.90
35240;DHT22;21376;50.954;4.716;2023-02-03T01:32:37;9.90;99.90
35240;DHT22;21376;50.954;4.716;2023-02-03T01:35:06;9.90;99.90
35240;DHT22;21376;50.954;4.716;2023-02-03T01:37:35;10.00;99.90
35240;DHT22;21376;50.954;4.716;2023-02-03T01:40:07;10.10;99.90
35240;DHT22;21376;50.954;4.716;2023-02-03T01:42:39;10.10;99.90
35240;DHT22;21376;50.954;4.716;2023-02-03T01:45:05;10.00;99.90
35240;DHT22;21376;50.954;4.716;2023-02-03T01:47:53;10.00;99.90
35240;DHT22;21376;50.954;4.716;2023-02-03T01:50:28;10.00;99.90
35240;DHT22;21376;50.954;4.716;2023-02-03T01:53:12;10.00;99.90
35240;DHT22;21376;50.954;4.716;2023-02-03T01:55:41;10.10;99.90
35240;DHT22;21376;50.954;4.716;2023-02-03T01:58:32;10.00;99.90
35240;DHT22;21376;50.954;4.716;2023-02-03T02:01:22;10.10;99.90
35240;DHT22;21376;50.954;4.716;2023-02-03T02:04:03;10.10;99.90
35240;DHT22;21376;50.954;4.716;2023-02-03T02:06:32;10.00;99.90
35240;DHT22;21376;50.954;4.716;2023-02-03T02:09:03;10.00;99.90
35240;DHT22;21376;50.954;4.716;2023-02-03T02:11:32;10.00;99.90
35240;DHT22;21376;50.954;4.716;2023-02-03T02:14:02;10.10;99.90
35240;DHT22;21376;50.954;4.716;2023-02-03T02:19:51;10.10;99.90
35240;DHT22;21376;50.954;4.716;2023-02-03T02:23:04;10.00;99.90
35240;DHT22;21376;50.954;4.716;2023-02-03T02:38:14;9.90;99.90
35240;DHT22;21376;50.954;4.716;2023-02-03T02:43:41;9.90;99.90
35240;DHT22;21376;50.954;4.716;2023-02-03T02:46:14;10.00;99.90
35240;DHT22;21376;50.954;4.716;2023-02-03T02:49:19;9.90;99.90
35240;DHT22;21376;50.954;4.716;2023-02-03T02:52:03;9.90;99.90
35240;DHT22;21376;50.954;4.716;2023-02-03T02:54:32;9.90;99.90
35240;DHT22;21376;50.954;4.716;2023-02-03T03:06:31;9.90;99.90
35240;DHT22;21376;50.954;4.716;2023-02-03T03:09:22;9.90;99.90
35240;DHT22;21376;50.954;4.716;2023-02-03T03:12:02;9.90;99.90
35240;DHT22;21376;50.954;4.716;2023-02-03T03:15:04;9.90;99.90
35240;DHT22;21376;50.954;4.716;2023-02-03T03:17:42;9.80;99.90
35240;DHT22;21376;50.954;4.716;2023-02-03T03:20:20;9.90;99.90
35240;DHT22;21376;50.954;4.716;2023-02-03T03:23:10;10.00;99.90
35240;DHT22;21376;50.954;4.716;2023-02-03T03:25:52;9.90;99.90
35240;DHT22;21376;50.954;4.716;2023-02-03T03:28:34;9.90;99.90
35240;DHT22;21376;50.954;4.716;2023-02-03T03:31:01;9.90;99.90
35240;DHT22;21376;50.954;4.716;2023-02-03T03:33:28;10.00;99.90
35240;DHT22;21376;50.954;4.716;2023-02-03T03:36:28;10.00;99.90
35240;DHT22;21376;50.954;4.716;2023-02-03T03:38:59;10.00;99.90
35240;DHT22;21376;50.954;4.716;2023-02-03T03:48:20;10.00;99.90
35240;DHT22;21376;50.954;4.716;2023-02-03T03:50:50;10.10;99.90
35240;DHT22;21376;50.954;4.716;2023-02-03T03:53:40;10.00;99.90
35240;DHT22;21376;50.954;4.716;2023-02-03T03:56:27;10.00;99.90
35240;DHT22;21376;50.954;4.716;2023-02-03T03:58:58;10.00;99.90
35240;DHT22;21376;50.954;4.716;2023-02-03T04:04:23;10.10;99.90
35240;DHT22;21376;50.954;4.716;2023-02-03T04:07:21;10.00;99.90
35240;DHT22;21376;50.954;4.716;2023-02-03T04:09:47;10.00;99.90
35240;DHT22;21376;50.954;4.716;2023-02-03T04:12:20;9.90;99.90
35240;DHT22;21376;50.954;4.716;2023-02-03T04:14:50;9.90;99.90
35240;DHT22;21376;50.954;4.716;2023-02-03T04:17:18;9.90;99.90
35240;DHT22;21376;50.954;4.716;2023-02-03T04:19:48;9.90;99.90
35240;DHT22;21376;50.954;4.716;2023-02-03T04:22:19;9.90;99.90
35240;DHT22;21376;50.954;4.716;2023-02-03T04:24:47;10.00;99.90
35240;DHT22;21376;50.954;4.716;2023-02-03T04:27:15;10.00;99.90
35240;DHT22;21376;50.954;4.716;2023-02-03T04:29:44;9.90;99.90
35240;DHT22;21376;50.954;4.716;2023-02-03T04:32:15;9.90;99.90
35240;DHT22;21376;50.954;4.716;2023-02-03T04:34:43;9.90;99.90
35240;DHT22;21376;50.954;4.716;2023-02-03T04:37:12;10.00;99.90
35240;DHT22;21376;50.954;4.716;2023-02-03T04:39:52;10.00;99.90
35240;DHT22;21376;50.954;4.716;2023-02-03T04:42:22;10.00;99.90
35240;DHT22;21376;50.954;4.716;2023-02-03T04:44:48;10.00;99.90
35240;DHT22;21376;50.954;4.716;2023-02-03T04:47:18;9.80;99.90
35240;DHT22;21376;50.954;4.716;2023-02-03T04:49:58;10.00;99.90
35240;DHT22;21376;50.954;4.716;2023-02-03T04:52:25;9.90;99.90
35240;DHT22;21376;50.954;4.716;2023-02-03T04:54:57;9.90;99.90
35240;DHT22;21376;50.954;4.716;2023-02-03T05:00:44;9.90;99.90
35240;DHT22;21376;50.954;4.716;2023-02-03T05:03:13;10.00;99.90
35240;DHT22;21376;50.954;4.716;2023-02-03T05:05:42;9.90;99.90
35240;DHT22;21376;50.954;4.716;2023-02-03T05:08:08;9.90;99.90
35240;DHT22;21376;50.954;4.716;2023-02-03T05:10:47;9.90;99.90
35240;DHT22;21376;50.954;4.716;2023-02-03T05:13:25;10.00;99.90
35240;DHT22;21376;50.954;4.716;2023-02-03T05:15:54;10.00;99.90
35240;DHT22;21376;50.954;4.716;2023-02-03T05:18:20;9.90;99.90
35240;DHT22;21376;50.954;4.716;2023-02-03T05:20:48;9.90;99.90
35240;DHT22;21376;50.954;4.716;2023-02-03T05:23:16;9.90;99.90
35240;DHT22;21376;50.954;4.716;2023-02-03T05:25:46;9.90;99.90
35240;DHT22;21376;50.954;4.716;2023-02-03T05:28:17;9.80;99.90
35240;DHT22;21376;50.954;4.716;2023-02-03T05:30:48;9.80;99.90
35240;DHT22;21376;50.954;4.716;2023-02-03T05:33:17;9.90;99.90
35240;DHT22;21376;50.954;4.716;2023-02-03T05:35:46;9.80;99.90
35240;DHT22;21376;50.954;4.716;2023-02-03T05:38:13;9.80;99.90
35240;DHT22;21376;50.954;4.716;2023-02-03T05:40:42;9.80;99.90
35240;DHT22;21376;50.954;4.716;2023-02-03T05:43:31;9.80;99.90
35240;DHT22;21376;50.954;4.716;2023-02-03T05:46:04;9.90;99.90
35240;DHT22;21376;50.954;4.716;2023-02-03T05:48:31;9.90;99.90
35240;DHT22;21376;50.954;4.716;2023-02-03T05:50:59;10.10;99.90
35240;DHT22;21376;50.954;4.716;2023-02-03T05:53:26;9.90;99.90
35240;DHT22;21376;50.954;4.716;2023-02-03T05:55:54;10.00;99.90
35240;DHT22;21376;50.954;4.716;2023-02-03T05:58:23;9.90;99.90
35240;DHT22;21376;50.954;4.716;2023-02-03T06:01:04;9.90;99.90
35240;DHT22;21376;50.954;4.716;2023-02-03T06:03:33;10.00;99.90
35240;DHT22;21376;50.954;4.716;2023-02-03T06:06:02;9.90;99.90
35240;DHT22;21376;50.954;4.716;2023-02-03T06:08:30;9.90;99.90
35240;DHT22;21376;50.954;4.716;2023-02-03T06:11:02;9.90;99.90
35240;DHT22;21376;50.954;4.716;2023-02-03T06:13:30;9.80;99.90
35240;DHT22;21376;50.954;4.716;2023-02-03T06:15:59;9.90;99.90
35240;DHT22;21376;50.954;4.716;2023-02-03T06:18:27;9.80;99.90
35240;DHT22;21376;50.954;4.716;2023-02-03T06:20:56;9.80;99.90
35240;DHT22;21376;50.954;4.716;2023-02-03T06:23:25;9.80;99.90
35240;DHT22;21376;50.954;4.716;2023-02-03T06:25:53;10.00;99.90
35240;DHT22;21376;50.954;4.716;2023-02-03T06:28:21;9.90;99.90
35240;DHT22;21376;50.954;4.716;2023-02-03T06:30:53;9.90;99.90
35240;DHT22;21376;50.954;4.716;2023-02-03T06:33:22;10.10;99.90
35240;DHT22;21376;50.954;4.716;2023-02-03T06:35:52;9.90;99.90
35240;DHT22;21376;50.954;4.716;2023-02-03T06:38:21;10.00;99.90
35240;DHT22;21376;50.954;4.716;2023-02-03T06:40:50;10.00;99.90
35240;DHT22;21376;50.954;4.716;2023-02-03T06:43:22;10.00;99.90
35240;DHT22;21376;50.954;4.716;2023-02-03T06:45:59;10.10;99.90
35240;DHT22;21376;50.954;4.716;2023-02-03T06:48:26;10.10;99.90
35240;DHT22;21376;50.954;4.716;2023-02-03T06:50:55;9.90;99.90
35240;DHT22;21376;50.954;4.716;2023-02-03T06:53:24;9.90;99.90
35240;DHT22;21376;50.954;4.716;2023-02-03T06:55:51;10.00;99.90
35240;DHT22;21376;50.954;4.716;2023-02-03T06:58:36;10.00;99.90
35240;DHT22;21376;50.954;4.716;2023-02-03T07:01:11;10.00;99.90
35240;DHT22;21376;50.954;4.716;2023-02-03T07:03:40;10.00;99.90
35240;DHT22;21376;50.954;4.716;2023-02-03T07:06:22;9.90;99.90
35240;DHT22;21376;50.954;4.716;2023-02-03T07:08:53;9.90;99.90
35240;DHT22;21376;50.954;4.716;2023-02-03T07:11:29;9.90;99.90
35240;DHT22;21376;50.954;4.716;2023-02-03T07:13:58;9.90;99.90
35240;DHT22;21376;50.954;4.716;2023-02-03T07:16:25;10.00;99.90
35240;DHT22;21376;50.954;4.716;2023-02-03T07:18:55;10.00;99.90
35240;DHT22;21376;50.954;4.716;2023-02-03T07:21:24;10.00;99.90
35240;DHT22;21376;50.954;4.716;2023-02-03T07:23:53;9.90;99.90
35240;DHT22;21376;50.954;4.716;2023-02-03T07:26:22;9.90;99.90
35240;DHT22;21376;50.954;4.716;2023-02-03T07:28:55;9.90;99.90
35240;DHT22;21376;50.954;4.716;2023-02-03T07:31:24;9.90;99.90
35240;DHT22;21376;50.954;4.716;2023-02-03T07:33:53;10.00;99.90
35240;DHT22;21376;50.954;4.716;2023-02-03T07:36:22;10.10;99.90
35240;DHT22;21376;50.954;4.716;2023-02-03T07:38:56;10.20;99.90
35240;DHT22;21376;50.954;4.716;2023-02-03T07:41:23;10.10;99.90
35240;DHT22;21376;50.954;4.716;2023-02-03T07:43:52;10.20;99.90
35240;DHT22;21376;50.954;4.716;2023-02-03T07:46:17;10.10;99.90
35240;DHT22;21376;50.954;4.716;2023-02-03T07:48:46;10.10;99.90
35240;DHT22;21376;50.954;4.716;2023-02-03T07:51:20;10.10;99.90
35240;DHT22;21376;50.954;4.716;2023-02-03T07:54:00;10.10;99.90
35240;DHT22;21376;50.954;4.716;2023-02-03T07:56:56;10.20;99.90
35240;DHT22;21376;50.954;4.716;2023-02-03T07:59:25;9.90;99.90
35240;DHT22;21376;50.954;4.716;2023-02-03T08:01:54;10.20;99.90
35240;DHT22;21376;50.954;4.716;2023-02-03T08:04:23;10.20;99.90
35240;DHT22;21376;50.954;4.716;2023-02-03T08:07:11;10.20;99.90
35240;DHT22;21376;50.954;4.716;2023-02-03T08:09:40;10.30;99.90
35240;DHT22;21376;50.954;4.716;2023-02-03T08:12:06;10.30;99.90
35240;DHT22;21376;50.954;4.716;2023-02-03T08:14:35;10.30;99.90
35240;DHT22;21376;50.954;4.716;2023-02-03T08:17:04;10.30;99.90
35240;DHT22;21376;50.954;4.716;2023-02-03T08:19:44;10.30;99.90
35240;DHT22;21376;50.954;4.716;2023-02-03T08:25:34;10.40;99.90
35240;DHT22;21376;50.954;4.716;2023-02-03T08:39:24;10.30;99.90
35240;DHT22;21376;50.954;4.716;2023-02-03T08:42:21;10.20;99.90
35240;DHT22;21376;50.954;4.716;2023-02-03T08:44:47;10.50;99.90
35240;DHT22;21376;50.954;4.716;2023-02-03T08:47:13;10.50;99.90
35240;DHT22;21376;50.954;4.716;2023-02-03T08:49:45;10.50;99.90
35240;DHT22;21376;50.954;4.716;2023-02-03T08:52:12;10.60;99.90
35240;DHT22;21376;50.954;4.716;2023-02-03T08:54:47;10.60;99.90
35240;DHT22;21376;50.954;4.716;2023-02-03T08:57:16;10.60;99.90
35240;DHT22;21376;50.954;4.716;2023-02-03T08:59:46;10.60;99.90
35240;DHT22;21376;50.954;4.716;2023-02-03T09:02:17;10.60;99.90
35240;DHT22;21376;50.954;4.716;2023-02-03T09:04:50;10.60;99.90
35240;DHT22;21376;50.954;4.716;2023-02-03T09:07:17;10.60;99.90
35240;DHT22;21376;50.954;4.716;2023-02-03T09:09:46;10.50;99.90
35240;DHT22;21376;50.954;4.716;2023-02-03T09:12:11;10.40;99.90
35240;DHT22;21376;50.954;4.716;2023-02-03T09:14:40;10.50;99.90
35240;DHT22;21376;50.954;4.716;2023-02-03T09:17:22;10.40;99.90
35240;DHT22;21376;50.954;4.716;2023-02-03T09:19:50;10.40;99.90
35240;DHT22;21376;50.954;4.716;2023-02-03T09:22:18;10.40;99.90
35240;DHT22;21376;50.954;4.716;2023-02-03T09:24:44;10.40;99.90
35240;DHT22;21376;50.954;4.716;2023-02-03T09:27:12;10.40;99.90
35240;DHT22;21376;50.954;4.716;2023-02-03T09:29:38;10.40;99.90
35240;DHT22;21376;50.954;4.716;2023-02-03T09:32:05;10.50;99.90
35240;DHT22;21376;50.954;4.716;2023-02-03T09:34:33;10.40;99.90
35240;DHT22;21376;50.954;4.716;2023-02-03T09:36:59;10.40;99.90
35240;DHT22;21376;50.954;4.716;2023-02-03T09:39:24;10.50;99.90
35240;DHT22;21376;50.954;4.716;2023-02-03T09:42:05;10.70;99.90
35240;DHT22;21376;50.954;4.716;2023-02-03T09:47:36;10.70;99.90
35240;DHT22;21376;50.954;4.716;2023-02-03T09:50:14;10.70;99.90
35240;DHT22;21376;50.954;4.716;2023-02-03T09:52:42;10.70;99.90
35240;DHT22;21376;50.954;4.716;2023-02-03T09:55:34;10.60;99.90
35240;DHT22;21376;50.954;4.716;2023-02-03T09:58:13;10.70;99.90
35240;DHT22;21376;50.954;4.716;2023-02-03T10:04:04;10.90;99.90
35240;DHT22;21376;50.954;4.716;2023-02-03T10:09:59;10.90;99.90
35240;DHT22;21376;50.954;4.716;2023-02-03T10:16:03;11.10;99.90
35240;DHT22;21376;50.954;4.716;2023-02-03T10:18:47;11.20;99.90
35240;DHT22;21376;50.954;4.716;2023-02-03T10:21:44;11.10;99.90
35240;DHT22;21376;50.954;4.716;2023-02-03T10:24:19;11.20;99.90
35240;DHT22;21376;50.954;4.716;2023-02-03T10:26:49;11.20;99.90
35240;DHT22;21376;50.954;4.716;2023-02-03T10:29:36;11.10;99.90
35240;DHT22;21376;50.954;4.716;2023-02-03T10:32:30;11.20;99.90
35240;DHT22;21376;50.954;4.716;2023-02-03T10:40:20;11.20;99.90
35240;DHT22;21376;50.954;4.716;2023-02-03T10:42:49;11.30;99.90
35240;DHT22;21376;50.954;4.716;2023-02-03T10:45:48;11.20;99.90
35240;DHT22;21376;50.954;4.716;2023-02-03T10:48:17;11.10;99.90
35240;DHT22;21376;50.954;4.716;2023-02-03T10:50:49;11.20;99.90
35240;DHT22;21376;50.954;4.716;2023-02-03T10:53:35;11.10;99.90
35240;DHT22;21376;50.954;4.716;2023-02-03T10:56:15;11.10;99.90
35240;DHT22;21376;50.954;4.716;2023-02-03T10:58:54;11.00;99.90
35240;DHT22;21376;50.954;4.716;2023-02-03T11:01:44;11.00;99.90
35240;DHT22;21376;50.954;4.716;2023-02-03T11:04:24;11.00;99.90
35240;DHT22;21376;50.954;4.716;2023-02-03T11:06:55;11.00;99.90
35240;DHT22;21376;50.954;4.716;2023-02-03T11:09:37;11.00;99.90
35240;DHT22;21376;50.954;4.716;2023-02-03T11:12:22;11.00;99.90
35240;DHT22;21376;50.954;4.716;2023-02-03T11:14:52;10.90;99.90
35240;DHT22;21376;50.954;4.716;2023-02-03T11:17:36;11.00;99.90
35240;DHT22;21376;50.954;4.716;2023-02-03T11:20:17;10.90;99.90
35240;DHT22;21376;50.954;4.716;2023-02-03T11:22:47;11.00;99.90
35240;DHT22;21376;50.954;4.716;2023-02-03T11:25:27;11.20;99.90
35240;DHT22;21376;50.954;4.716;2023-02-03T11:28:04;11.20;99.90
35240;DHT22;21376;50.954;4.716;2023-02-03T11:30:33;11.20;99.90
35240;DHT22;21376;50.954;4.716;2023-02-03T11:33:00;11.10;99.90
35240;DHT22;21376;50.954;4.716;2023-02-03T11:35:33;11.20;99.90
35240;DHT22;21376;50.954;4.716;2023-02-03T11:38:31;11.30;99.90
35240;DHT22;21376;50.954;4.716;2023-02-03T12:01:42;11.10;99.90
35240;DHT22;21376;50.954;4.716;2023-02-03T12:05:16;11.10;99.90
35240;DHT22;21376;50.954;4.716;2023-02-03T12:13:32;11.10;99.90
35240;DHT22;21376;50.954;4.716;2023-02-03T12:16:20;11.10;99.90
35240;DHT22;21376;50.954;4.716;2023-02-03T12:22:04;11.10;99.90
35240;DHT22;21376;50.954;4.716;2023-02-03T12:24:59;11.10;99.90
35240;DHT22;21376;50.954;4.716;2023-02-03T12:30:33;10.90;99.90
35240;DHT22;21376;50.954;4.716;2023-02-03T12:33:37;11.00;99.90
35240;DHT22;21376;50.954;4.716;2023-02-03T12:38:53;11.00;99.90
35240;DHT22;21376;50.954;4.716;2023-02-03T12:41:32;11.10;99.90
35240;DHT22;21376;50.954;4.716;2023-02-03T12:44:25;11.10;99.90
35240;DHT22;21376;50.954;4.716;2023-02-03T12:47:14;11.10;99.90
35240;DHT22;21376;50.954;4.716;2023-02-03T12:49:54;11.20;99.90
35240;DHT22;21376;50.954;4.716;2023-02-03T12:57:51;11.30;99.90
35240;DHT22;21376;50.954;4.716;2023-02-03T13:00:45;11.40;99.90
35240;DHT22;21376;50.954;4.716;2023-02-03T13:09:31;11.50;99.90
35240;DHT22;21376;50.954;4.716;2023-02-03T13:20:42;11.70;99.90
35240;DHT22;21376;50.954;4.716;2023-02-03T13:23:12;11.80;99.90
35240;DHT22;21376;50.954;4.716;2023-02-03T13:31:38;11.80;99.90
35240;DHT22;21376;50.954;4.716;2023-02-03T13:34:29;11.70;99.90
35240;DHT22;21376;50.954;4.716;2023-02-03T13:42:33;11.60;99.90
35240;DHT22;21376;50.954;4.716;2023-02-03T13:47:35;11.60;99.90
35240;DHT22;21376;50.954;4.716;2023-02-03T13:50:06;11.60;99.90
35240;DHT22;21376;50.954;4.716;2023-02-03T13:52:59;11.60;99.90
35240;DHT22;21376;50.954;4.716;2023-02-03T13:55:41;11.60;99.90
35240;DHT22;21376;50.954;4.716;2023-02-03T13:58:28;11.60;99.90
35240;DHT22;21376;50.954;4.716;2023-02-03T14:05:54;11.50;99.90
35240;DHT22;21376;50.954;4.716;2023-02-03T14:16:37;11.50;99.90
35240;DHT22;21376;50.954;4.716;2023-02-03T14:19:07;11.50;99.90
35240;DHT22;21376;50.954;4.716;2023-02-03T14:24:11;11.60;99.90
35240;DHT22;21376;50.954;4.716;2023-02-03T14:26:43;11.50;99.90
35240;DHT22;21376;50.954;4.716;2023-02-03T14:29:26;11.60;99.90
35240;DHT22;21376;50.954;4.716;2023-02-03T14:32:11;11.60;99.90
35240;DHT22;21376;50.954;4.716;2023-02-03T14:34:45;11.60;99.90
35240;DHT22;21376;50.954;4.716;2023-02-03T14:37:21;11.70;99.90
35240;DHT22;21376;50.954;4.716;2023-02-03T14:43:19;11.80;99.90
35240;DHT22;21376;50.954;4.716;2023-02-03T14:46:18;11.90;99.90
35240;DHT22;21376;50.954;4.716;2023-02-03T14:48:51;12.10;99.90
35240;DHT22;21376;50.954;4.716;2023-02-03T15:00:24;11.60;99.90
35240;DHT22;21376;50.954;4.716;2023-02-03T15:03:23;11.60;99.90
35240;DHT22;21376;50.954;4.716;2023-02-03T15:09:41;11.70;99.90
35240;DHT22;21376;50.954;4.716;2023-02-03T15:12:18;11.70;99.90
35240;DHT22;21376;50.954;4.716;2023-02-03T15:14:43;11.60;99.90
35240;DHT22;21376;50.954;4.716;2023-02-03T15:17:22;11.60;99.90
35240;DHT22;21376;50.954;4.716;2023-02-03T15:19:51;11.70;99.90
35240;DHT22;21376;50.954;4.716;2023-02-03T15:22:22;11.70;99.90
35240;DHT22;21376;50.954;4.716;2023-02-03T15:24:58;11.60;99.90
35240;DHT22;21376;50.954;4.716;2023-02-03T15:27:29;11.60;99.90
35240;DHT22;21376;50.954;4.716;2023-02-03T15:29:57;11.70;99.90
35240;DHT22;21376;50.954;4.716;2023-02-03T15:32:48;11.70;99.90
35240;DHT22;21376;50.954;4.716;2023-02-03T15:35:29;11.60;99.90
35240;DHT22;21376;50.954;4.716;2023-02-03T15:38:01;11.60;99.90
35240;DHT22;21376;50.954;4.716;2023-02-03T15:40:37;11.60;99.90
35240;DHT22;21376;50.954;4.716;2023-02-03T15:43:18;11.60;99.90
35240;DHT22;21376;50.954;4.716;2023-02-03T15:46:05;11.70;99.90
35240;DHT22;21376;50.954;4.716;2023-02-03T15:48:59;11.70;99.90
35240;DHT22;21376;50.954;4.716;2023-02-03T15:51:48;11.70;99.90
35240;DHT22;21376;50.954;4.716;2023-02-03T15:54:19;11.70;99.90
35240;DHT22;21376;50.954;4.716;2023-02-03T15:56:53;11.60;99.90
35240;DHT22;21376;50.954;4.716;2023-02-03T15:59:41;11.50;99.90
35240;DHT22;21376;50.954;4.716;2023-02-03T16:04:42;11.50;99.90
35240;DHT22;21376;50.954;4.716;2023-02-03T16:07:20;11.50;99.90
35240;DHT22;21376;50.954;4.716;2023-02-03T16:09:51;11.50;99.90
35240;DHT22;21376;50.954;4.716;2023-02-03T16:12:22;11.40;99.90
35240;DHT22;21376;50.954;4.716;2023-02-03T16:14:49;11.40;99.90
35240;DHT22;21376;50.954;4.716;2023-02-03T16:17:22;11.40;99.90
35240;DHT22;21376;50.954;4.716;2023-02-03T16:19:50;11.30;99.90
35240;DHT22;21376;50.954;4.716;2023-02-03T16:22:28;11.30;99.90
35240;DHT22;21376;50.954;4.716;2023-02-03T16:24:56;11.30;99.90
35240;DHT22;21376;50.954;4.716;2023-02-03T16:30:36;11.10;99.90
35240;DHT22;21376;50.954;4.716;2023-02-03T16:35:52;11.10;99.90
35240;DHT22;21376;50.954;4.716;2023-02-03T16:38:46;11.10;99.90
35240;DHT22;21376;50.954;4.716;2023-02-03T16:41:31;11.10;99.90
35240;DHT22;21376;50.954;4.716;2023-02-03T16:44:16;11.00;99.90
35240;DHT22;21376;50.954;4.716;2023-02-03T16:47:01;11.00;99.90
35240;DHT22;21376;50.954;4.716;2023-02-03T16:49:45;11.00;99.90
35240;DHT22;21376;50.954;4.716;2023-02-03T16:52:30;11.00;99.90
35240;DHT22;21376;50.954;4.716;2023-02-03T16:54:57;11.10;99.90
35240;DHT22;21376;50.954;4.716;2023-02-03T16:57:23;11.20;99.90
35240;DHT22;21376;50.954;4.716;2023-02-03T16:59:50;11.20;99.90
35240;DHT22;21376;50.954;4.716;2023-02-03T17:02:16;11.20;99.90
35240;DHT22;21376;50.954;4.716;2023-02-03T17:04:44;11.10;99.90
35240;DHT22;21376;50.954;4.716;2023-02-03T17:07:13;11.10;99.90
35240;DHT22;21376;50.954;4.716;2023-02-03T17:09:41;11.20;99.90
35240;DHT22;21376;50.954;4.716;2023-02-03T17:12:06;11.10;99.90
35240;DHT22;21376;50.954;4.716;2023-02-03T17:14:32;11.00;99.90
35240;DHT22;21376;50.954;4.716;2023-02-03T17:16:58;10.90;99.90
35240;DHT22;21376;50.954;4.716;2023-02-03T17:19:26;10.80;99.90
35240;DHT22;21376;50.954;4.716;2023-02-03T17:21:51;10.90;99.90
35240;DHT22;21376;50.954;4.716;2023-02-03T17:24:17;10.70;99.90
35240;DHT22;21376;50.954;4.716;2023-02-03T17:26:46;10.80;99.90
35240;DHT22;21376;50.954;4.716;2023-02-03T17:29:12;10.80;99.90
35240;DHT22;21376;50.954;4.716;2023-02-03T17:31:37;10.70;99.90
35240;DHT22;21376;50.954;4.716;2023-02-03T17:34:05;10.80;99.90
35240;DHT22;21376;50.954;4.716;2023-02-03T17:36:31;10.70;99.90
35240;DHT22;21376;50.954;4.716;2023-02-03T17:39:01;10.60;99.90
35240;DHT22;21376;50.954;4.716;2023-02-03T17:41:29;10.60;99.90
35240;DHT22;21376;50.954;4.716;2023-02-03T17:43:55;10.60;99.90
35240;DHT22;21376;50.954;4.716;2023-02-03T17:46:24;10.50;99.90
35240;DHT22;21376;50.954;4.716;2023-02-03T17:48:50;10.50;99.90
35240;DHT22;21376;50.954;4.716;2023-02-03T17:51:21;10.50;99.90
35240;DHT22;21376;50.954;4.716;2023-02-03T17:53:49;10.50;99.90
35240;DHT22;21376;50.954;4.716;2023-02-03T17:56:21;10.60;99.90
35240;DHT22;21376;50.954;4.716;2023-02-03T17:58:58;10.60;99.90
35240;DHT22;21376;50.954;4.716;2023-02-03T18:01:25;10.60;99.90
35240;DHT22;21376;50.954;4.716;2023-02-03T18:03:55;10.60;99.90
35240;DHT22;21376;50.954;4.716;2023-02-03T18:06:23;10.60;99.90
35240;DHT22;21376;50.954;4.716;2023-02-03T18:08:52;10.60;99.90
35240;DHT22;21376;50.954;4.716;2023-02-03T18:11:27;10.60;99.90
35240;DHT22;21376;50.954;4.716;2023-02-03T18:13:55;10.60;99.90
35240;DHT22;21376;50.954;4.716;2023-02-03T18:16:24;10.70;99.90
35240;DHT22;21376;50.954;4.716;2023-02-03T18:18:51;10.80;99.90
35240;DHT22;21376;50.954;4.716;2023-02-03T18:21:19;10.70;99.90
35240;DHT22;21376;50.954;4.716;2023-02-03T18:23:45;10.70;99.90
35240;DHT22;21376;50.954;4.716;2023-02-03T18:26:15;10.70;99.90
35240;DHT22;21376;50.954;4.716;2023-02-03T18:28:41;10.60;99.90
35240;DHT22;21376;50.954;4.716;2023-02-03T18:31:11;10.70;99.90
35240;DHT22;21376;50.954;4.716;2023-02-03T18:33:38;10.70;99.90
35240;DHT22;21376;50.954;4.716;2023-02-03T18:36:07;10.70;99.90
35240;DHT22;21376;50.954;4.716;2023-02-03T18:38:35;10.70;99.90
35240;DHT22;21376;50.954;4.716;2023-02-03T18:41:06;10.60;99.90
35240;DHT22;21376;50.954;4.716;2023-02-03T18:43:34;10.60;99.90
35240;DHT22;21376;50.954;4.716;2023-02-03T18:46:37;10.70;99.90
35240;DHT22;21376;50.954;4.716;2023-02-03T18:48:57;10.70;99.90
35240;DHT22;21376;50.954;4.716;2023-02-03T18:51:24;10.70;99.90
35240;DHT22;21376;50.954;4.716;2023-02-03T18:53:51;10.60;99.90
35240;DHT22;21376;50.954;4.716;2023-02-03T18:56:23;10.70;99.90
35240;DHT22;21376;50.954;4.716;2023-02-03T18:58:49;10.70;99.90
35240;DHT22;21376;50.954;4.716;2023-02-03T19:01:27;10.80;99.90
35240;DHT22;21376;50.954;4.716;2023-02-03T19:03:54;10.80;99.90
35240;DHT22;21376;50.954;4.716;2023-02-03T19:06:19;10.80;99.90
35240;DHT22;21376;50.954;4.716;2023-02-03T19:08:46;10.80;99.90
35240;DHT22;21376;50.954;4.716;2023-02-03T19:11:12;10.80;99.90
35240;DHT22;21376;50.954;4.716;2023-02-03T19:13:41;10.80;99.90
35240;DHT22;21376;50.954;4.716;2023-02-03T19:16:08;10.80;99.90
35240;DHT22;21376;50.954;4.716;2023-02-03T19:18:38;10.70;99.90
35240;DHT22;21376;50.954;4.716;2023-02-03T19:21:06;10.70;99.90
35240;DHT22;21376;50.954;4.716;2023-02-03T19:23:32;10.80;99.90
35240;DHT22;21376;50.954;4.716;2023-02-03T19:25:58;10.80;99.90
35240;DHT22;21376;50.954;4.716;2023-02-03T19:28:24;10.70;99.90